createdAt,value
2019-01-18T00:01:23.882Z,100842.92
2019-01-18T00:04:27.920Z,100845.42
2019-01-18T00:07:31.756Z,100856.19
2019-01-18T00:10:36.971Z,100860.88
2019-01-18T00:13:41.006Z,100867.37
2019-01-18T00:16:45.408Z,100876.00
2019-01-18T00:19:52.188Z,100879.00
2019-01-18T00:22:56.142Z,100888.09
2019-01-18T00:26:00.135Z,100891.48
2019-01-18T00:29:04.144Z,100891.45
2019-01-18T00:32:08.464Z,100908.34
2019-01-18T00:35:12.477Z,100915.66
2019-01-18T00:38:20.696Z,100918.21
2019-01-18T00:41:24.856Z,100923.81
2019-01-18T00:44:29.080Z,100932.94
2019-01-18T00:47:33.566Z,100941.97
2019-01-18T00:50:37.796Z,100940.22
2019-01-18T00:53:41.720Z,100949.77
2019-01-18T00:56:45.652Z,100951.06
2019-01-18T00:59:49.648Z,100960.19
2019-01-18T01:02:53.854Z,100965.78
2019-01-18T01:05:59.225Z,100966.58
2019-01-18T01:09:03.370Z,100980.53
2019-01-18T01:12:08.663Z,100990.04
2019-01-18T01:15:15.772Z,100988.63
2019-01-18T01:18:19.672Z,100998.78
2019-01-18T01:21:23.798Z,101003.99
2019-01-18T01:24:28.441Z,101006.92
2019-01-18T01:27:32.357Z,101007.34
2019-01-18T01:30:36.388Z,101008.12
2019-01-18T01:33:40.252Z,101021.98
2019-01-18T01:36:45.655Z,101024.18
2019-01-18T01:39:49.509Z,101034.22
2019-01-18T01:42:53.727Z,101035.97
2019-01-18T01:45:59.038Z,101041.09
2019-01-18T01:49:02.927Z,101048.43
2019-01-18T01:52:07.233Z,101051.92
2019-01-18T01:55:11.333Z,101052.69
2019-01-18T01:58:15.171Z,101048.33
2019-01-18T02:01:19.096Z,101054.34
2019-01-18T02:04:23.018Z,101056.84
2019-01-18T02:07:27.170Z,101060.30
2019-01-18T02:10:33.281Z,101060.75
2019-01-18T02:13:41.168Z,101062.08
2019-01-18T02:16:45.092Z,101062.56
2019-01-18T02:19:49.022Z,101061.61
2019-01-18T02:22:53.321Z,101065.83
2019-01-18T02:25:57.277Z,101060.14
2019-01-18T02:29:01.329Z,101073.84
2019-01-18T02:32:05.548Z,101076.48
2019-01-18T02:35:09.967Z,101075.94
2019-01-18T02:38:17.430Z,101085.44
2019-01-18T02:41:21.408Z,101092.29
2019-01-18T02:44:25.337Z,101095.30
2019-01-18T02:47:29.336Z,101090.64
2019-01-18T02:50:33.225Z,101094.66
2019-01-18T02:53:37.169Z,101092.43
2019-01-18T02:56:42.698Z,101094.11
2019-01-18T02:59:46.550Z,101094.86
2019-01-18T03:02:50.662Z,101100.06
2019-01-18T03:05:54.664Z,101098.22
2019-01-18T03:08:58.602Z,101099.41
2019-01-18T03:12:02.619Z,101100.30
2019-01-18T03:15:06.964Z,101101.50
2019-01-18T03:18:13.078Z,101109.61
2019-01-18T03:21:17.345Z,101112.70
2019-01-18T03:24:21.279Z,101114.38
2019-01-18T03:27:25.305Z,101124.34
2019-01-18T03:30:29.247Z,101131.27
2019-01-18T03:33:33.101Z,101140.05
2019-01-18T03:36:37.111Z,101143.24
2019-01-18T03:39:41.022Z,101139.92
2019-01-18T03:42:45.151Z,101138.70
2019-01-18T03:45:49.005Z,101147.03
2019-01-18T03:48:52.690Z,101140.59
2019-01-18T03:51:56.520Z,101148.03
2019-01-18T03:55:00.512Z,101151.08
2019-01-18T03:58:04.632Z,101155.33
2019-01-18T04:01:08.585Z,101166.19
2019-01-18T04:04:12.575Z,101166.02
2019-01-18T04:07:16.595Z,101169.73
2019-01-18T04:10:20.646Z,101170.00
2019-01-18T04:13:24.500Z,101183.72
2019-01-18T04:16:29.063Z,101177.92
2019-01-18T04:19:33.129Z,101185.20
2019-01-18T04:22:37.051Z,101177.28
2019-01-18T04:25:41.173Z,101184.64
2019-01-18T04:28:45.364Z,101182.37
2019-01-18T04:31:49.216Z,101184.34
2019-01-18T04:34:53.134Z,101186.78
2019-01-18T04:37:57.367Z,101180.56
2019-01-18T04:41:01.217Z,101177.59
2019-01-18T04:44:05.627Z,101180.72
2019-01-18T04:47:09.559Z,101178.12
2019-01-18T04:50:15.810Z,101181.91
2019-01-18T04:53:19.708Z,101185.70
2019-01-18T04:56:23.614Z,101188.22
2019-01-18T04:59:27.491Z,101183.09
2019-01-18T05:02:31.389Z,101183.81
2019-01-18T05:05:37.697Z,101175.75
2019-01-18T05:08:44.961Z,101178.95
2019-01-18T05:11:48.807Z,101185.47
2019-01-18T05:14:52.951Z,101184.31
2019-01-18T05:17:56.870Z,101186.95
2019-01-18T05:21:00.741Z,101192.76
2019-01-18T05:24:04.739Z,101196.14
2019-01-18T05:27:11.398Z,101198.92
2019-01-18T05:30:20.473Z,101198.55
2019-01-18T05:33:24.409Z,101198.19
2019-01-18T05:36:28.335Z,101203.02
2019-01-18T05:39:32.258Z,101204.59
2019-01-18T05:42:36.199Z,101208.05
2019-01-18T05:45:43.152Z,101209.09
2019-01-18T05:48:47.088Z,101212.29
2019-01-18T05:51:51.072Z,101209.91
2019-01-18T05:54:55.115Z,101209.80
2019-01-18T05:57:58.988Z,101213.94
2019-01-18T06:01:07.886Z,101208.73
2019-01-18T06:04:11.901Z,101214.16
2019-01-18T06:07:15.923Z,101217.14
2019-01-18T06:10:19.844Z,101222.05
2019-01-18T06:13:23.769Z,101225.39
2019-01-18T06:16:27.736Z,101231.94
2019-01-18T06:19:31.728Z,101230.34
2019-01-18T06:22:35.676Z,101227.97
2019-01-18T06:25:39.617Z,101231.13
2019-01-18T06:28:43.548Z,101236.75
2019-01-18T06:31:47.393Z,101241.25
2019-01-18T06:34:51.374Z,101245.87
2019-01-18T06:37:55.238Z,101242.78
2019-01-18T06:41:07.588Z,101247.42
2019-01-18T06:44:11.445Z,101255.94
2019-01-18T06:47:19.659Z,101254.92
2019-01-18T06:50:23.602Z,101256.12
2019-01-18T06:53:27.505Z,101254.00
2019-01-18T06:56:32.545Z,101258.56
2019-01-18T06:59:36.471Z,101256.60
2019-01-18T07:02:40.478Z,101269.81
2019-01-18T07:05:44.499Z,101265.55
2019-01-18T07:08:48.466Z,101272.98
2019-01-18T07:11:52.491Z,101275.38
2019-01-18T07:14:56.419Z,101275.61
2019-01-18T07:18:00.333Z,101282.28
2019-01-18T07:21:04.578Z,101285.59
2019-01-18T07:24:08.591Z,101284.74
2019-01-18T07:27:12.606Z,101286.27
2019-01-18T07:30:19.129Z,101291.11
2019-01-18T07:33:23.015Z,101294.38
2019-01-18T07:36:27.193Z,101308.57
2019-01-18T07:39:31.111Z,101299.77
2019-01-18T07:42:35.073Z,101302.66
2019-01-18T07:45:39.094Z,101312.80
2019-01-18T07:48:42.951Z,101312.08
2019-01-18T07:51:46.823Z,101312.01
2019-01-18T07:54:50.685Z,101308.65
2019-01-18T07:57:55.091Z,101323.14
2019-01-18T08:00:59.281Z,101322.14
2019-01-18T08:04:03.247Z,101327.98
2019-01-18T08:07:07.363Z,101324.72
2019-01-18T08:10:14.093Z,101333.92
2019-01-18T08:13:18.024Z,101334.92
2019-01-18T08:16:21.982Z,101337.67
2019-01-18T08:19:25.856Z,101345.74
2019-01-18T08:22:29.918Z,101345.87
2019-01-18T08:25:34.833Z,101348.17
2019-01-18T08:28:38.878Z,101351.19
2019-01-18T08:31:42.926Z,101355.13
2019-01-18T08:34:46.820Z,101354.39
2019-01-18T08:37:50.840Z,101354.48
2019-01-18T08:40:54.751Z,101361.44
2019-01-18T08:43:58.664Z,101371.82
2019-01-18T08:47:04.557Z,101370.06
2019-01-18T08:50:11.690Z,101384.41
2019-01-18T08:53:15.664Z,101374.66
2019-01-18T08:56:19.628Z,101380.59
2019-01-18T08:59:23.566Z,101384.94
2019-01-18T09:02:27.806Z,101384.31
2019-01-18T09:05:31.680Z,101386.25
2019-01-18T09:08:35.850Z,101395.50
2019-01-18T09:11:39.865Z,101398.14
2019-01-18T09:14:43.774Z,101403.55
2019-01-18T09:17:50.318Z,101405.84
2019-01-18T09:20:53.578Z,101404.14
2019-01-18T09:23:57.428Z,101408.22
2019-01-18T09:27:01.451Z,101415.67
2019-01-18T09:30:07.626Z,101408.20
2019-01-18T09:33:11.695Z,101414.38
2019-01-18T09:36:15.932Z,101423.23
2019-01-18T09:39:19.864Z,101427.72
2019-01-18T09:42:23.857Z,101430.98
2019-01-18T09:45:28.178Z,101431.14
2019-01-18T09:48:35.548Z,101428.66
2019-01-18T09:51:39.443Z,101435.73
2019-01-18T09:54:43.394Z,101435.03
2019-01-18T09:57:47.394Z,101433.44
2019-01-18T10:00:51.455Z,101441.92
2019-01-18T10:03:55.493Z,101442.05
2019-01-18T10:06:59.423Z,101442.25
2019-01-18T10:10:05.697Z,101442.42
2019-01-18T10:13:09.837Z,101450.48
2019-01-18T10:16:14.351Z,101449.42
2019-01-18T10:19:18.240Z,101454.63
2019-01-18T10:22:22.333Z,101455.53
2019-01-18T10:25:26.531Z,101457.68
2019-01-18T10:28:32.818Z,101455.55
2019-01-18T10:31:36.857Z,101462.20
2019-01-18T10:34:40.793Z,101461.39
2019-01-18T10:37:44.820Z,101458.47
2019-01-18T10:40:48.677Z,101461.20
2019-01-18T10:43:52.636Z,101458.28
2019-01-18T10:46:56.635Z,101463.27
2019-01-18T10:50:02.808Z,101457.72
2019-01-18T10:53:06.845Z,101454.43
2019-01-18T10:56:10.799Z,101460.30
2019-01-18T10:59:14.705Z,101462.62
2019-01-18T11:02:18.603Z,101457.94
2019-01-18T11:05:23.851Z,101460.61
2019-01-18T11:08:27.895Z,101459.79
2019-01-18T11:11:31.769Z,101470.36
2019-01-18T11:14:35.799Z,101474.73
2019-01-18T11:17:42.831Z,101479.65
2019-01-18T11:21:03.438Z,101482.38
2019-01-18T11:24:07.449Z,101484.16
2019-01-18T11:27:11.318Z,101478.59
2019-01-18T11:30:16.155Z,101486.91
2019-01-18T11:33:20.027Z,101489.17
2019-01-18T11:36:24.369Z,101487.06
2019-01-18T11:39:28.244Z,101489.35
2019-01-18T11:42:38.650Z,101488.16
2019-01-18T11:45:42.983Z,101483.39
2019-01-18T11:48:50.375Z,101484.30
2019-01-18T11:51:52.640Z,101491.43
2019-01-18T11:54:56.502Z,101486.64
2019-01-18T11:58:00.466Z,101491.50
2019-01-18T12:01:04.784Z,101492.02
2019-01-18T12:04:08.821Z,101491.66
2019-01-18T12:07:16.802Z,101494.38
2019-01-18T12:10:24.880Z,101494.84
2019-01-18T12:13:28.844Z,101497.07
2019-01-18T12:16:32.724Z,101492.73
2019-01-18T12:19:36.650Z,101492.80
2019-01-18T12:22:40.586Z,101500.70
2019-01-18T12:25:47.720Z,101500.28
2019-01-18T12:28:51.631Z,101503.81
2019-01-18T12:31:55.593Z,101506.91
2019-01-18T12:34:59.519Z,101505.19
2019-01-18T12:38:03.558Z,101504.34
2019-01-18T12:41:07.578Z,101508.72
2019-01-18T12:44:11.432Z,101508.77
2019-01-18T12:47:15.347Z,101510.52
2019-01-18T12:50:34.201Z,101510.52
2019-01-18T12:53:38.123Z,101507.05
2019-01-18T12:56:42.052Z,101507.89
2019-01-18T12:59:46.023Z,101512.30
2019-01-18T13:02:50.250Z,101510.99
2019-01-18T13:05:54.900Z,101511.42
2019-01-18T13:08:58.870Z,101513.21
2019-01-18T13:12:05.029Z,101516.20
2019-01-18T13:15:16.161Z,101517.52
2019-01-18T13:18:20.048Z,101516.69
2019-01-18T13:21:24.047Z,101519.78
2019-01-18T13:24:29.956Z,101528.99
2019-01-18T13:27:33.938Z,101527.19
2019-01-18T13:30:39.177Z,101525.39
2019-01-18T13:33:43.199Z,101524.51
2019-01-18T13:36:47.250Z,101534.17
2019-01-18T13:39:51.099Z,101534.13
2019-01-18T13:42:55.030Z,101537.66
2019-01-18T13:46:01.768Z,101538.13
2019-01-18T13:49:09.316Z,101542.08
2019-01-18T13:52:13.167Z,101542.48
2019-01-18T13:55:19.887Z,101545.54
2019-01-18T13:58:23.896Z,101548.17
2019-01-18T14:01:28.297Z,101544.58
2019-01-18T14:04:32.221Z,101545.45
2019-01-18T14:07:37.455Z,101545.86
2019-01-18T14:10:41.396Z,101556.73
2019-01-18T14:13:45.305Z,101556.30
2019-01-18T14:16:49.311Z,101552.30
2019-01-18T14:19:53.314Z,101552.28
2019-01-18T14:22:57.562Z,101558.34
2019-01-18T14:26:01.541Z,101560.44
2019-01-18T14:29:05.571Z,101567.83
2019-01-18T14:32:10.548Z,101569.54
2019-01-18T14:35:14.598Z,101567.25
2019-01-18T14:38:24.941Z,101566.81
2019-01-18T14:41:24.112Z,101562.86
2019-01-18T14:44:27.988Z,101572.87
2019-01-18T14:47:31.908Z,101571.49
2019-01-18T14:50:35.944Z,101567.45
2019-01-18T14:53:39.934Z,101577.07
2019-01-18T14:56:43.915Z,101577.89
2019-01-18T14:59:47.744Z,101579.58
2019-01-18T15:02:53.802Z,101579.01
2019-01-18T15:05:57.651Z,101585.10
2019-01-18T15:09:01.602Z,101584.55
2019-01-18T15:12:05.978Z,101590.02
2019-01-18T15:15:12.137Z,101589.42
2019-01-18T15:18:16.977Z,101588.02
2019-01-18T15:21:20.918Z,101591.27
2019-01-18T15:24:27.782Z,101591.17
2019-01-18T15:27:31.718Z,101589.59
2019-01-18T15:30:35.742Z,101594.23
2019-01-18T15:33:39.692Z,101601.92
2019-01-18T15:36:43.726Z,101603.45
2019-01-18T15:39:47.725Z,101605.09
2019-01-18T15:42:52.500Z,101602.78
2019-01-18T15:45:56.497Z,101602.98
2019-01-18T15:49:00.490Z,101602.41
2019-01-18T15:52:04.663Z,101604.92
2019-01-18T15:55:09.409Z,101608.06
2019-01-18T15:58:13.650Z,101613.29
2019-01-18T16:01:17.607Z,101613.70
2019-01-18T16:04:21.614Z,101611.88
2019-01-18T16:07:25.611Z,101619.23
2019-01-18T16:10:32.731Z,101619.16
2019-01-18T16:13:36.702Z,101622.14
2019-01-18T16:17:03.932Z,101623.34
2019-01-18T16:20:12.013Z,101630.70
2019-01-18T16:23:16.048Z,101628.86
2019-01-18T16:26:20.021Z,101630.55
2019-01-18T16:29:26.806Z,101635.76
2019-01-18T16:32:30.839Z,101631.33
2019-01-18T16:35:34.856Z,101630.81
2019-01-18T16:38:38.882Z,101632.10
2019-01-18T16:41:45.971Z,101635.05
2019-01-18T16:44:49.903Z,101634.13
2019-01-18T16:47:53.977Z,101636.70
2019-01-18T16:50:58.008Z,101637.98
2019-01-18T16:54:02.058Z,101636.08
2019-01-18T16:57:06.100Z,101637.86
2019-01-18T17:00:33.448Z,101638.16
2019-01-18T17:03:37.479Z,101643.52
2019-01-18T17:06:41.398Z,101637.77
2019-01-18T17:09:45.339Z,101636.73
2019-01-18T17:12:49.345Z,101638.31
2019-01-18T17:15:53.387Z,101643.49
2019-01-18T17:18:59.758Z,101639.47
2019-01-18T17:22:03.849Z,101644.30
2019-01-18T17:25:07.907Z,101638.03
2019-01-18T17:28:11.951Z,101639.70
2019-01-18T17:31:15.871Z,101634.82
2019-01-18T17:34:22.021Z,101636.96
2019-01-18T17:37:30.808Z,101638.23
2019-01-18T17:40:39.988Z,101642.59
2019-01-18T17:44:08.376Z,101642.67
2019-01-18T17:47:49.327Z,101648.23
2019-01-18T17:51:43.490Z,101648.56
2019-01-18T17:54:56.326Z,101642.27
2019-01-18T17:58:36.880Z,101645.30
2019-01-18T18:02:14.867Z,101643.45
2019-01-18T18:05:54.884Z,101639.81
2019-01-18T18:09:24.140Z,101641.89
2019-01-18T18:13:02.907Z,101641.06
2019-01-18T18:16:38.954Z,101644.89
2019-01-18T18:20:22.699Z,101644.73
2019-01-18T18:23:56.574Z,101647.18
2019-01-18T18:27:50.055Z,101656.17
2019-01-18T18:31:20.244Z,101651.70
2019-01-18T18:34:52.258Z,101655.90
2019-01-18T18:38:49.649Z,101654.97
2019-01-18T18:42:37.677Z,101652.42
2019-01-18T18:46:28.197Z,101663.20
2019-01-18T18:50:19.490Z,101671.81
2019-01-18T18:54:19.210Z,101669.84
2019-01-18T18:57:54.601Z,101675.08
2019-01-18T19:01:51.843Z,101677.34
2019-01-18T19:05:33.388Z,101684.20
2019-01-18T19:08:52.625Z,101676.73
2019-01-18T19:12:23.413Z,101681.31
2019-01-18T19:15:48.938Z,101681.45
2019-01-18T19:19:33.149Z,101689.61
2019-01-18T19:23:15.890Z,101689.30
2019-01-18T19:27:07.050Z,101692.46
2019-01-18T19:30:52.776Z,101688.95
2019-01-18T19:34:51.656Z,101703.38
2019-01-18T19:38:25.797Z,101691.60
2019-01-18T19:42:00.666Z,101694.84
2019-01-18T19:45:26.890Z,101695.32
2019-01-18T19:49:17.757Z,101697.66
2019-01-18T19:52:54.528Z,101694.25
2019-01-18T19:56:11.420Z,101695.94
2019-01-18T19:59:59.916Z,101697.18
2019-01-18T20:03:29.052Z,101699.86
2019-01-18T20:06:54.087Z,101700.93
2019-01-18T20:10:37.002Z,101700.00
2019-01-18T20:14:18.076Z,101698.76
2019-01-18T20:17:42.085Z,101701.79
2019-01-18T20:21:24.072Z,101701.79
2019-01-18T20:25:24.655Z,101704.03
2019-01-18T20:29:02.524Z,101712.88
2019-01-18T20:32:37.551Z,101718.73
2019-01-18T20:36:10.510Z,101720.94
2019-01-18T20:40:03.547Z,101716.88
2019-01-18T20:43:37.113Z,101726.48
2019-01-18T20:47:25.175Z,101726.13
2019-01-18T20:50:59.624Z,101728.75
2019-01-18T20:54:47.864Z,101729.95
2019-01-18T20:58:14.468Z,101736.50
2019-01-18T21:01:50.345Z,101730.82
2019-01-18T21:05:19.505Z,101726.86
2019-01-18T21:08:53.707Z,101740.78
2019-01-18T21:12:33.121Z,101737.74
2019-01-18T21:16:08.088Z,101745.08
2019-01-18T21:20:01.540Z,101746.36
2019-01-18T21:23:44.547Z,101747.48
2019-01-18T21:27:36.611Z,101746.27
2019-01-18T21:30:57.875Z,101751.60
2019-01-18T21:34:42.783Z,101754.67
2019-01-18T21:38:11.301Z,101759.08
2019-01-18T21:41:46.350Z,101753.06
2019-01-18T21:45:34.815Z,101764.12
2019-01-18T21:49:03.539Z,101758.17
2019-01-18T21:52:53.333Z,101759.66
2019-01-18T21:56:23.443Z,101759.98
2019-01-18T21:59:53.357Z,101757.21
2019-01-18T22:03:22.917Z,101760.52
2019-01-18T22:07:02.551Z,101760.89
2019-01-18T22:10:57.024Z,101762.41
2019-01-18T22:14:51.390Z,101765.84
2019-01-18T22:18:06.964Z,101764.91
2019-01-18T22:21:50.363Z,101765.64
2019-01-18T22:25:39.369Z,101764.66
2019-01-18T22:29:20.054Z,101774.58
2019-01-18T22:33:04.882Z,101768.05
2019-01-18T22:36:52.113Z,101775.77
2019-01-18T22:40:38.743Z,101771.34
2019-01-18T22:44:22.367Z,101773.47
2019-01-18T22:48:03.533Z,101781.47
2019-01-18T22:51:32.439Z,101775.84
2019-01-18T22:55:12.778Z,101780.41
2019-01-18T22:59:09.948Z,101781.72
2019-01-18T23:02:41.423Z,101788.61
2019-01-18T23:06:28.662Z,101794.88
2019-01-18T23:10:14.551Z,101797.95
2019-01-18T23:14:05.575Z,101798.76
2019-01-18T23:17:43.549Z,101796.92
2019-01-18T23:21:04.526Z,101803.45
2019-01-18T23:24:27.437Z,101797.81
2019-01-18T23:28:07.899Z,101796.55
2019-01-18T23:31:36.426Z,101798.31
2019-01-18T23:35:13.959Z,101798.22
2019-01-18T23:38:32.263Z,101800.70
2019-01-18T23:41:56.775Z,101803.23
2019-01-18T23:45:37.622Z,101798.05
2019-01-18T23:49:35.117Z,101801.84
2019-01-18T23:53:17.842Z,101802.94
2019-01-18T23:56:55.189Z,101801.95
